createdAt,value
2023-02-21T00:00:54.652Z,8.70
2023-02-21T00:03:39.937Z,8.70
2023-02-21T00:06:27.375Z,8.70
2023-02-21T00:09:12.982Z,8.70
2023-02-21T00:12:02.662Z,8.70
2023-02-21T00:14:48.098Z,8.70
2023-02-21T00:17:33.999Z,8.70
2023-02-21T00:20:19.259Z,8.70
2023-02-21T00:23:05.258Z,8.70
2023-02-21T00:25:50.696Z,8.70
2023-02-21T00:28:35.989Z,8.70
2023-02-21T00:31:21.392Z,8.70
2023-02-21T00:34:07.281Z,8.70
2023-02-21T00:36:52.799Z,8.70
2023-02-21T00:39:38.200Z,8.70
2023-02-21T00:42:23.553Z,8.70
2023-02-21T00:45:08.748Z,8.70
2023-02-21T00:47:54.308Z,8.70
2023-02-21T00:50:39.811Z,8.60
2023-02-21T00:53:25.792Z,8.70
2023-02-21T00:56:11.178Z,8.60
2023-02-21T00:58:56.757Z,8.60
2023-02-21T01:01:41.971Z,8.60
2023-02-21T01:04:27.626Z,8.60
2023-02-21T01:07:12.860Z,8.60
2023-02-21T01:09:58.442Z,8.60
2023-02-21T01:12:43.813Z,8.70
2023-02-21T01:15:29.244Z,8.60
2023-02-21T01:18:14.640Z,8.60
2023-02-21T01:20:59.934Z,8.60
2023-02-21T01:23:45.165Z,8.60
2023-02-21T01:26:31.241Z,8.60
2023-02-21T01:29:16.600Z,8.70
2023-02-21T01:32:01.950Z,8.60
2023-02-21T01:34:47.304Z,8.50
2023-02-21T01:37:33.059Z,8.60
2023-02-21T01:40:18.553Z,8.60
2023-02-21T01:43:04.265Z,8.60
2023-02-21T01:45:55.795Z,8.50
2023-02-21T01:48:42.748Z,8.60
2023-02-21T01:51:30.671Z,8.60
2023-02-21T01:54:16.315Z,8.70
2023-02-21T01:57:02.084Z,8.70
2023-02-21T01:59:47.922Z,8.70
2023-02-21T02:03:07.266Z,8.70
2023-02-21T02:05:53.854Z,8.70
2023-02-21T02:08:44.398Z,8.70
2023-02-21T02:12:09.278Z,8.70
2023-02-21T02:14:48.146Z,8.70
2023-02-21T02:17:21.120Z,8.70
2023-02-21T02:19:47.912Z,8.70
2023-02-21T02:22:33.075Z,8.70
2023-02-21T02:25:30.827Z,8.70
2023-02-21T02:28:09.881Z,8.70
2023-02-21T02:30:53.311Z,8.70
2023-02-21T02:33:57.979Z,8.70
2023-02-21T02:36:51.462Z,8.70
2023-02-21T02:39:48.728Z,8.70
2023-02-21T02:42:18.611Z,8.70
2023-02-21T02:45:01.609Z,8.80
2023-02-21T02:47:40.591Z,8.80
2023-02-21T02:50:09.638Z,8.80
2023-02-21T02:52:36.862Z,8.80
2023-02-21T02:55:21.044Z,8.80
2023-02-21T02:57:48.922Z,8.80
2023-02-21T03:00:16.674Z,8.80
2023-02-21T03:03:07.882Z,8.80
2023-02-21T03:05:43.672Z,8.80
2023-02-21T03:08:23.080Z,8.90
2023-02-21T03:11:18.656Z,8.80
2023-02-21T03:14:07.320Z,8.80
2023-02-21T03:16:42.518Z,8.80
2023-02-21T03:19:17.636Z,8.80
2023-02-21T03:21:49.804Z,8.80
2023-02-21T03:24:18.932Z,8.80
2023-02-21T03:26:49.687Z,8.80
2023-02-21T03:29:17.245Z,8.90
2023-02-21T03:31:54.156Z,8.80
2023-02-21T03:34:21.929Z,8.90
2023-02-21T03:36:49.624Z,8.90
2023-02-21T03:39:16.472Z,8.90
2023-02-21T03:41:43.319Z,8.90
2023-02-21T03:44:10.156Z,8.90
2023-02-21T03:46:38.683Z,8.90
2023-02-21T03:49:06.736Z,8.90
2023-02-21T03:51:33.578Z,8.90
2023-02-21T03:54:00.412Z,8.90
2023-02-21T03:56:36.668Z,9.00
2023-02-21T03:59:07.250Z,9.00
2023-02-21T04:01:34.049Z,9.00
2023-02-21T04:04:00.938Z,9.00
2023-02-21T04:06:27.848Z,9.00
2023-02-21T04:08:54.676Z,9.10
2023-02-21T04:11:22.697Z,9.00
2023-02-21T04:13:49.578Z,9.00
2023-02-21T04:16:16.432Z,9.00
2023-02-21T04:18:43.298Z,9.00
2023-02-21T04:21:10.211Z,8.90
2023-02-21T04:23:36.998Z,8.90
2023-02-21T04:26:03.864Z,8.90
2023-02-21T04:28:30.774Z,8.90
2023-02-21T04:30:57.629Z,9.00
2023-02-21T04:33:24.507Z,9.00
2023-02-21T04:35:51.372Z,8.90
2023-02-21T04:38:18.369Z,8.90
2023-02-21T04:40:45.238Z,8.90
2023-02-21T04:43:12.085Z,8.90
2023-02-21T04:45:38.952Z,8.90
2023-02-21T04:48:06.125Z,8.90
2023-02-21T04:50:32.969Z,8.90
2023-02-21T04:52:59.873Z,8.90
2023-02-21T04:55:26.734Z,8.90
2023-02-21T04:57:53.535Z,8.90
2023-02-21T05:00:20.443Z,8.90
2023-02-21T05:02:48.108Z,8.90
2023-02-21T05:05:15.042Z,8.90
2023-02-21T05:07:42.871Z,8.90
2023-02-21T05:10:10.948Z,8.90
2023-02-21T05:12:41.757Z,8.90
2023-02-21T05:15:10.006Z,8.80
2023-02-21T05:17:36.884Z,8.80
2023-02-21T05:20:05.137Z,8.80
2023-02-21T05:22:32.030Z,8.80
2023-02-21T05:24:58.849Z,8.80
2023-02-21T05:27:25.768Z,8.80
2023-02-21T05:29:53.828Z,8.80
2023-02-21T05:32:22.326Z,8.80
2023-02-21T05:34:49.278Z,8.80
2023-02-21T05:37:17.491Z,8.80
2023-02-21T05:39:44.329Z,8.80
2023-02-21T05:42:11.439Z,8.80
2023-02-21T05:44:38.324Z,8.80
2023-02-21T05:47:07.230Z,8.80
2023-02-21T05:49:34.168Z,8.80
2023-02-21T05:52:00.989Z,8.80
2023-02-21T05:54:27.855Z,8.80
2023-02-21T05:56:54.692Z,8.80
2023-02-21T05:59:21.951Z,8.70
2023-02-21T06:01:49.636Z,8.70
2023-02-21T06:04:17.618Z,8.70
2023-02-21T06:06:45.320Z,8.70
2023-02-21T06:09:12.730Z,8.70
2023-02-21T06:11:40.534Z,8.70
2023-02-21T06:14:14.113Z,8.70
2023-02-21T06:16:40.991Z,8.70
2023-02-21T06:19:09.659Z,8.70
2023-02-21T06:21:36.760Z,8.70
2023-02-21T06:24:03.786Z,8.70
2023-02-21T06:26:30.808Z,8.60
2023-02-21T06:28:57.666Z,8.60
2023-02-21T06:31:24.908Z,8.60
2023-02-21T06:33:52.260Z,8.60
2023-02-21T06:36:22.772Z,8.60
2023-02-21T06:38:52.830Z,8.60
2023-02-21T06:41:24.635Z,8.60
2023-02-21T06:43:56.277Z,8.60
2023-02-21T06:46:25.798Z,8.60
2023-02-21T06:48:52.606Z,8.60
2023-02-21T06:51:20.086Z,8.40
2023-02-21T06:53:50.440Z,8.50
2023-02-21T06:56:17.376Z,8.50
2023-02-21T06:58:44.325Z,8.50
2023-02-21T07:01:11.221Z,8.50
2023-02-21T07:03:43.256Z,8.50
2023-02-21T07:06:10.477Z,8.50
2023-02-21T07:08:37.401Z,8.50
2023-02-21T07:11:05.797Z,8.50
2023-02-21T07:13:33.630Z,8.50
2023-02-21T07:16:01.780Z,8.50
2023-02-21T07:18:28.721Z,8.60
2023-02-21T07:20:55.776Z,8.60
2023-02-21T07:23:22.560Z,8.60
2023-02-21T07:25:49.512Z,8.60
2023-02-21T07:28:16.595Z,8.60
2023-02-21T07:30:43.539Z,8.60
2023-02-21T07:33:10.402Z,8.60
2023-02-21T07:35:37.275Z,8.60
2023-02-21T07:38:04.121Z,8.50
2023-02-21T07:40:30.993Z,8.60
2023-02-21T07:42:57.920Z,8.50
2023-02-21T07:45:24.997Z,8.60
2023-02-21T07:47:53.338Z,8.60
2023-02-21T07:50:20.378Z,8.60
2023-02-21T07:52:47.262Z,8.60
2023-02-21T07:55:15.098Z,8.60
2023-02-21T07:57:41.919Z,8.60
2023-02-21T08:00:09.686Z,8.60
2023-02-21T08:02:36.538Z,8.60
2023-02-21T08:05:05.867Z,8.60
2023-02-21T08:07:32.760Z,8.70
2023-02-21T08:09:59.716Z,8.70
2023-02-21T08:12:26.781Z,8.70
2023-02-21T08:14:53.653Z,8.70
2023-02-21T08:17:20.607Z,8.70
2023-02-21T08:19:47.639Z,8.80
2023-02-21T08:22:14.526Z,8.80
2023-02-21T08:24:41.422Z,8.80
2023-02-21T08:27:08.296Z,8.80
2023-02-21T08:29:35.128Z,8.90
2023-02-21T08:32:02.261Z,8.90
2023-02-21T08:34:31.956Z,8.90
2023-02-21T08:36:58.830Z,8.90
2023-02-21T08:39:29.959Z,8.90
2023-02-21T08:41:57.133Z,8.90
2023-02-21T08:44:23.999Z,8.90
2023-02-21T08:46:50.942Z,8.90
2023-02-21T08:49:18.151Z,8.90
2023-02-21T08:51:45.049Z,8.90
2023-02-21T08:54:11.971Z,8.90
2023-02-21T08:56:38.894Z,9.00
2023-02-21T08:59:05.972Z,9.00
2023-02-21T09:01:34.960Z,9.00
2023-02-21T09:04:05.957Z,9.00
2023-02-21T09:06:33.054Z,9.00
2023-02-21T09:09:00.569Z,9.00
2023-02-21T09:11:27.416Z,9.00
2023-02-21T09:13:55.189Z,9.00
2023-02-21T09:16:23.660Z,9.10
2023-02-21T09:18:59.171Z,9.10
2023-02-21T09:21:26.834Z,9.10
2023-02-21T09:23:55.705Z,9.10
2023-02-21T09:26:24.260Z,9.10
2023-02-21T09:28:52.547Z,9.10
2023-02-21T09:31:20.702Z,9.10
2023-02-21T09:33:47.679Z,9.10
2023-02-21T09:36:14.822Z,9.20
2023-02-21T09:38:42.049Z,9.10
2023-02-21T09:41:13.685Z,9.20
2023-02-21T09:43:47.702Z,9.10
2023-02-21T09:46:42.841Z,9.10
2023-02-21T09:49:37.342Z,9.20
2023-02-21T09:52:04.445Z,9.20
2023-02-21T09:54:39.158Z,9.30
2023-02-21T09:57:11.845Z,9.30
2023-02-21T09:59:38.713Z,9.20
2023-02-21T10:02:14.675Z,9.20
2023-02-21T10:05:03.415Z,9.30
2023-02-21T10:07:49.624Z,9.40
2023-02-21T10:10:48.677Z,9.40
2023-02-21T10:13:27.074Z,9.30
2023-02-21T10:16:02.242Z,9.30
2023-02-21T10:18:40.919Z,9.40
2023-02-21T10:21:33.423Z,9.40
2023-02-21T10:24:05.182Z,9.50
2023-02-21T10:26:38.115Z,9.50
2023-02-21T10:29:09.142Z,9.40
2023-02-21T10:31:38.858Z,9.40
2023-02-21T10:34:10.127Z,9.40
2023-02-21T10:36:36.926Z,9.40
2023-02-21T10:39:10.660Z,9.30
2023-02-21T10:41:41.387Z,9.40
2023-02-21T10:44:18.559Z,9.40
2023-02-21T10:47:13.935Z,9.50
2023-02-21T10:49:54.196Z,9.50
2023-02-21T10:52:23.885Z,9.50
2023-02-21T10:55:31.436Z,9.50
2023-02-21T10:58:06.926Z,9.50
2023-02-21T11:00:48.105Z,9.50
2023-02-21T11:03:18.035Z,9.50
2023-02-21T11:05:58.514Z,9.50
2023-02-21T11:08:38.989Z,9.60
2023-02-21T11:11:06.368Z,9.60
2023-02-21T11:13:36.176Z,9.60
2023-02-21T11:16:17.491Z,9.70
2023-02-21T11:18:44.620Z,9.70
2023-02-21T11:21:19.724Z,9.70
2023-02-21T11:23:59.050Z,9.70
2023-02-21T11:26:27.746Z,9.70
2023-02-21T11:28:54.574Z,9.70
2023-02-21T11:31:31.188Z,9.80
2023-02-21T11:34:05.597Z,9.80
2023-02-21T11:36:38.811Z,9.80
2023-02-21T11:39:23.556Z,9.80
2023-02-21T11:42:31.040Z,9.90
2023-02-21T11:45:20.569Z,10.00
2023-02-21T11:47:58.671Z,10.10
2023-02-21T11:50:34.197Z,10.10
2023-02-21T11:53:22.452Z,10.10
2023-02-21T11:56:28.252Z,10.10
2023-02-21T11:59:23.846Z,10.10
2023-02-21T12:02:26.215Z,10.00
2023-02-21T12:05:10.231Z,9.90
2023-02-21T12:07:47.827Z,10.00
2023-02-21T12:10:39.500Z,10.00
2023-02-21T12:13:25.129Z,10.00
2023-02-21T12:16:16.374Z,10.10
2023-02-21T12:18:43.255Z,10.20
2023-02-21T12:21:36.057Z,10.10
2023-02-21T12:24:26.087Z,10.10
2023-02-21T12:27:24.731Z,10.10
2023-02-21T12:30:10.357Z,10.20
2023-02-21T12:32:40.483Z,10.20
2023-02-21T12:35:33.902Z,10.30
2023-02-21T12:38:07.426Z,10.40
2023-02-21T12:40:34.191Z,10.30
2023-02-21T12:43:08.859Z,10.30
2023-02-21T12:45:43.842Z,10.40
2023-02-21T12:48:25.609Z,10.40
2023-02-21T12:50:55.361Z,10.30
2023-02-21T12:53:47.794Z,10.30
2023-02-21T12:56:24.096Z,10.40
2023-02-21T12:59:03.347Z,10.50
2023-02-21T13:01:32.666Z,10.40
2023-02-21T13:04:18.118Z,10.40
2023-02-21T13:07:03.842Z,10.30
2023-02-21T13:09:51.098Z,10.20
2023-02-21T13:12:52.646Z,10.10
2023-02-21T13:15:22.319Z,10.00
2023-02-21T13:18:09.672Z,10.00
2023-02-21T13:20:42.608Z,10.00
2023-02-21T13:23:51.280Z,10.00
2023-02-21T13:26:31.137Z,10.00
2023-02-21T13:28:59.071Z,10.10
2023-02-21T13:31:39.331Z,10.20
2023-02-21T13:34:09.842Z,10.30
2023-02-21T13:36:43.169Z,10.20
2023-02-21T13:39:10.037Z,10.30
2023-02-21T13:41:40.966Z,10.30
2023-02-21T13:44:27.046Z,10.30
2023-02-21T13:46:54.735Z,10.20
2023-02-21T13:49:40.214Z,10.20
2023-02-21T13:52:28.885Z,10.10
2023-02-21T13:55:17.906Z,10.10
2023-02-21T13:57:58.226Z,10.10
2023-02-21T14:00:25.056Z,10.20
2023-02-21T14:03:13.912Z,10.20
2023-02-21T14:05:52.926Z,10.20
2023-02-21T14:08:32.108Z,10.20
2023-02-21T14:11:16.788Z,10.10
2023-02-21T14:13:54.814Z,10.00
2023-02-21T14:16:50.287Z,9.90
2023-02-21T14:19:26.156Z,10.00
2023-02-21T14:22:15.459Z,10.00
2023-02-21T14:25:03.889Z,9.90
2023-02-21T14:27:33.857Z,9.90
2023-02-21T14:30:13.197Z,9.90
2023-02-21T14:32:55.300Z,9.80
2023-02-21T14:35:36.313Z,9.80
2023-02-21T14:38:04.815Z,9.80
2023-02-21T14:41:13.032Z,9.80
2023-02-21T14:43:45.256Z,9.90
2023-02-21T14:46:24.032Z,9.80
2023-02-21T14:49:23.179Z,9.80
2023-02-21T14:52:08.625Z,9.70
2023-02-21T14:54:50.816Z,9.60
2023-02-21T14:57:39.508Z,9.60
2023-02-21T15:00:30.598Z,9.60
2023-02-21T15:03:00.383Z,9.60
2023-02-21T15:05:50.763Z,9.60
2023-02-21T15:08:20.784Z,9.50
2023-02-21T15:10:49.310Z,9.50
2023-02-21T15:13:30.142Z,9.50
2023-02-21T15:16:04.611Z,9.40
2023-02-21T15:18:33.507Z,9.40
2023-02-21T15:21:06.282Z,9.30
2023-02-21T15:23:34.568Z,9.30
2023-02-21T15:26:21.886Z,9.20
2023-02-21T15:29:16.105Z,9.20
2023-02-21T15:31:48.191Z,9.20
2023-02-21T15:34:20.319Z,9.20
2023-02-21T15:36:50.930Z,9.20
2023-02-21T15:39:33.930Z,9.10
2023-02-21T15:42:05.559Z,9.20
2023-02-21T15:44:38.991Z,9.20
2023-02-21T15:47:14.100Z,9.20
2023-02-21T15:49:45.190Z,9.20
2023-02-21T15:52:53.655Z,9.10
2023-02-21T15:55:20.666Z,9.10
2023-02-21T15:57:57.595Z,9.00
2023-02-21T16:00:35.470Z,9.00
2023-02-21T16:03:30.507Z,9.00
2023-02-21T16:06:12.761Z,9.00
2023-02-21T16:08:51.045Z,9.00
2023-02-21T16:11:19.860Z,9.00
2023-02-21T16:13:46.922Z,9.00
2023-02-21T16:16:13.987Z,9.00
2023-02-21T16:18:41.209Z,9.00
2023-02-21T16:21:21.548Z,9.00
2023-02-21T16:23:48.511Z,9.00
2023-02-21T16:26:16.838Z,8.90
2023-02-21T16:28:45.772Z,8.90
2023-02-21T16:31:25.170Z,8.90
2023-02-21T16:33:52.159Z,9.20
2023-02-21T16:36:27.493Z,8.90
2023-02-21T16:38:58.916Z,8.90
2023-02-21T16:41:26.652Z,8.90
2023-02-21T16:43:53.772Z,8.90
2023-02-21T16:46:29.102Z,8.80
2023-02-21T16:48:57.075Z,8.80
2023-02-21T16:51:23.962Z,8.90
2023-02-21T16:53:50.795Z,8.90
2023-02-21T16:56:18.041Z,8.90
2023-02-21T16:58:50.391Z,8.90
2023-02-21T17:01:28.046Z,8.90
2023-02-21T17:03:55.062Z,8.90
2023-02-21T17:06:24.519Z,8.90
2023-02-21T17:08:51.733Z,8.90
2023-02-21T17:11:18.828Z,8.90
2023-02-21T17:13:45.772Z,8.80
2023-02-21T17:16:12.739Z,8.80
2023-02-21T17:18:39.628Z,8.90
2023-02-21T17:21:06.688Z,8.80
2023-02-21T17:23:33.550Z,8.90
2023-02-21T17:26:00.470Z,8.80
2023-02-21T17:28:27.451Z,8.80
2023-02-21T17:30:54.640Z,8.80
2023-02-21T17:33:22.028Z,8.80
2023-02-21T17:35:50.014Z,8.80
2023-02-21T17:38:17.176Z,8.80
2023-02-21T17:40:46.425Z,8.90
2023-02-21T17:43:16.122Z,8.90
2023-02-21T17:45:43.034Z,8.90
2023-02-21T17:48:09.906Z,8.90
2023-02-21T17:50:36.794Z,9.00
2023-02-21T17:53:03.724Z,9.00
2023-02-21T17:55:32.325Z,9.00
2023-02-21T17:57:59.593Z,9.00
2023-02-21T18:00:28.565Z,9.00
2023-02-21T18:02:56.650Z,8.90
2023-02-21T18:05:24.210Z,8.90
2023-02-21T18:07:53.037Z,8.90
2023-02-21T18:10:23.120Z,8.90
2023-02-21T18:12:51.579Z,8.90
2023-02-21T18:15:20.775Z,8.90
2023-02-21T18:17:47.689Z,8.90
2023-02-21T18:20:18.009Z,8.90
2023-02-21T18:22:44.941Z,8.90
2023-02-21T18:25:15.359Z,8.90
2023-02-21T18:27:42.527Z,8.90
2023-02-21T18:30:10.230Z,8.90
2023-02-21T18:32:37.181Z,8.80
2023-02-21T18:35:04.389Z,8.80
2023-02-21T18:37:31.210Z,8.70
2023-02-21T18:39:58.083Z,8.70
2023-02-21T18:42:25.286Z,8.70
2023-02-21T18:44:52.418Z,8.70
2023-02-21T18:47:19.831Z,8.70
2023-02-21T18:49:47.978Z,8.70
2023-02-21T18:52:16.353Z,8.70
2023-02-21T18:54:48.891Z,8.70
2023-02-21T18:57:18.101Z,8.70
2023-02-21T18:59:45.108Z,8.70
2023-02-21T19:02:15.031Z,8.70
2023-02-21T19:04:43.538Z,8.70
2023-02-21T19:07:13.428Z,8.70
2023-02-21T19:09:40.732Z,8.70
2023-02-21T19:12:10.362Z,8.70
2023-02-21T19:14:38.147Z,8.70
2023-02-21T19:17:07.782Z,8.70
2023-02-21T19:19:35.625Z,8.70
2023-02-21T19:22:02.538Z,8.70
2023-02-21T19:24:29.435Z,8.70
2023-02-21T19:26:56.398Z,8.70
2023-02-21T19:29:23.373Z,8.70
2023-02-21T19:31:50.451Z,8.80
2023-02-21T19:34:17.407Z,8.70
2023-02-21T19:36:44.343Z,8.70
2023-02-21T19:39:12.056Z,8.80
2023-02-21T19:41:40.347Z,8.80
2023-02-21T19:44:08.416Z,8.80
2023-02-21T19:46:35.636Z,8.80
2023-02-21T19:49:03.096Z,8.80
2023-02-21T19:51:32.338Z,8.80
2023-02-21T19:54:00.207Z,8.80
2023-02-21T19:56:28.201Z,8.80
2023-02-21T19:58:55.451Z,8.90
2023-02-21T20:01:23.108Z,9.00
2023-02-21T20:03:50.651Z,9.00
2023-02-21T20:06:18.716Z,9.00
2023-02-21T20:08:48.831Z,9.00
2023-02-21T20:11:20.598Z,9.00
2023-02-21T20:13:47.996Z,9.00
2023-02-21T20:16:17.061Z,8.90
2023-02-21T20:18:44.750Z,9.00
2023-02-21T20:21:19.552Z,9.00
2023-02-21T20:23:46.657Z,9.00
2023-02-21T20:26:14.030Z,9.00
2023-02-21T20:28:40.905Z,9.00
2023-02-21T20:31:11.318Z,9.00
2023-02-21T20:33:38.922Z,9.00
2023-02-21T20:36:06.868Z,8.90
2023-02-21T20:38:34.461Z,8.90
2023-02-21T20:41:01.845Z,8.90
2023-02-21T20:43:29.383Z,8.90
2023-02-21T20:45:56.496Z,8.90
2023-02-21T20:48:25.546Z,8.90
2023-02-21T20:50:53.793Z,8.90
2023-02-21T20:53:21.237Z,8.90
2023-02-21T20:55:48.265Z,8.80
2023-02-21T20:58:15.145Z,8.80
2023-02-21T21:00:42.845Z,8.80
2023-02-21T21:03:12.053Z,8.80
2023-02-21T21:05:38.935Z,8.70
2023-02-21T21:08:06.395Z,8.70
2023-02-21T21:10:33.198Z,8.70
2023-02-21T21:13:00.175Z,8.70
2023-02-21T21:15:27.391Z,8.60
2023-02-21T21:17:54.957Z,8.60
2023-02-21T21:20:24.312Z,8.60
2023-02-21T21:22:51.467Z,8.60
2023-02-21T21:25:18.682Z,8.70
2023-02-21T21:27:45.870Z,8.70
2023-02-21T21:30:18.288Z,8.80
2023-02-21T21:32:45.487Z,8.90
2023-02-21T21:35:14.764Z,8.90
2023-02-21T21:37:41.883Z,8.90
2023-02-21T21:40:16.153Z,8.90
2023-02-21T21:42:50.130Z,8.80
2023-02-21T21:45:19.366Z,8.80
2023-02-21T21:47:48.476Z,8.80
2023-02-21T21:50:16.349Z,8.80
2023-02-21T21:52:45.588Z,8.90
2023-02-21T21:55:17.755Z,8.90
2023-02-21T21:57:44.581Z,8.90
2023-02-21T22:00:21.729Z,8.80
2023-02-21T22:02:50.462Z,8.80
2023-02-21T22:05:17.554Z,8.80
2023-02-21T22:07:44.585Z,8.80
2023-02-21T22:10:11.929Z,8.80
2023-02-21T22:12:40.159Z,8.80
2023-02-21T22:15:10.819Z,8.80
2023-02-21T22:17:37.889Z,8.80
2023-02-21T22:20:17.357Z,8.80
2023-02-21T22:22:48.969Z,8.80
2023-02-21T22:25:20.989Z,8.90
2023-02-21T22:27:48.694Z,8.90
2023-02-21T22:30:18.446Z,8.90
2023-02-21T22:32:47.085Z,8.80
2023-02-21T22:35:19.137Z,8.80
2023-02-21T22:37:54.564Z,8.80
2023-02-21T22:40:24.527Z,8.80
2023-02-21T22:42:52.143Z,8.80
2023-02-21T22:45:21.861Z,8.90
2023-02-21T22:47:50.344Z,8.90
2023-02-21T22:50:20.381Z,8.90
2023-02-21T22:52:56.446Z,9.00
2023-02-21T22:55:25.128Z,9.00
2023-02-21T22:57:53.677Z,9.00
2023-02-21T23:00:25.254Z,9.00
2023-02-21T23:02:52.766Z,9.00
2023-02-21T23:05:21.774Z,9.00
2023-02-21T23:07:51.268Z,9.00
2023-02-21T23:10:23.815Z,9.10
2023-02-21T23:12:52.719Z,9.10
2023-02-21T23:15:21.062Z,9.10
2023-02-21T23:17:49.290Z,9.10
2023-02-21T23:20:22.217Z,9.00
2023-02-21T23:22:51.428Z,9.10
2023-02-21T23:25:26.959Z,9.00
2023-02-21T23:27:56.618Z,8.90
2023-02-21T23:30:38.812Z,8.90
2023-02-21T23:33:14.536Z,8.80
2023-02-21T23:35:51.255Z,8.80
2023-02-21T23:38:22.684Z,8.80
2023-02-21T23:40:57.616Z,8.90
2023-02-21T23:43:29.261Z,8.90
2023-02-21T23:45:57.713Z,9.00
2023-02-21T23:48:24.650Z,9.00
2023-02-21T23:50:51.588Z,9.00
2023-02-21T23:53:21.129Z,9.00
2023-02-21T23:55:48.894Z,9.00
2023-02-21T23:58:19.337Z,9.00
